createdAt,value
2023-01-10T00:01:18.048Z,6.40
2023-01-10T00:03:44.697Z,4.88
2023-01-10T00:06:11.596Z,3.75
2023-01-10T00:08:38.275Z,8.02
2023-01-10T00:11:25.256Z,5.88
2023-01-10T00:13:56.206Z,6.28
2023-01-10T00:16:23.490Z,3.72
2023-01-10T00:18:50.498Z,4.78
2023-01-10T00:21:17.259Z,8.40
2023-01-10T00:23:44.754Z,4.32
2023-01-10T00:26:12.179Z,6.05
2023-01-10T00:28:39.636Z,4.88
2023-01-10T00:31:07.074Z,8.30
2023-01-10T00:33:35.244Z,7.47
2023-01-10T00:36:04.410Z,5.72
2023-01-10T00:38:31.775Z,6.53
2023-01-10T00:40:58.764Z,10.20
2023-01-10T00:43:44.338Z,5.95
2023-01-10T00:46:11.487Z,8.68
2023-01-10T00:48:38.448Z,8.30
2023-01-10T00:51:05.693Z,5.07
2023-01-10T00:53:32.454Z,20.20
2023-01-10T00:55:59.164Z,11.70
2023-01-10T00:58:25.813Z,6.18
2023-01-10T01:00:52.541Z,9.55
2023-01-10T01:03:21.330Z,13.98
2023-01-10T01:05:48.930Z,7.15
2023-01-10T01:08:17.649Z,8.52
2023-01-10T01:10:44.283Z,8.57
2023-01-10T01:13:15.237Z,8.20
2023-01-10T01:15:42.268Z,5.40
2023-01-10T01:18:12.303Z,7.25
2023-01-10T01:20:40.583Z,11.63
2023-01-10T01:23:07.424Z,7.70
2023-01-10T01:25:34.285Z,7.75
2023-01-10T01:28:00.914Z,9.68
2023-01-10T01:30:27.593Z,8.35
2023-01-10T01:32:54.280Z,8.32
2023-01-10T01:35:21.818Z,9.50
2023-01-10T01:37:48.666Z,8.90
2023-01-10T01:40:17.704Z,12.38
2023-01-10T01:42:45.688Z,6.40
2023-01-10T01:45:15.508Z,10.40
2023-01-10T01:47:51.153Z,8.07
2023-01-10T01:50:20.388Z,9.18
2023-01-10T01:52:49.267Z,11.73
2023-01-10T01:55:16.155Z,10.93
2023-01-10T01:57:44.295Z,12.35
2023-01-10T02:00:11.952Z,4.95
2023-01-10T02:03:01.260Z,11.65
2023-01-10T02:05:30.144Z,8.25
2023-01-10T02:07:59.905Z,13.10
2023-01-10T02:10:45.452Z,8.32
2023-01-10T02:13:15.359Z,8.20
2023-01-10T02:15:42.193Z,15.02
2023-01-10T02:18:09.198Z,9.27
2023-01-10T02:21:06.099Z,9.52
2023-01-10T02:23:47.914Z,10.50
2023-01-10T02:26:40.823Z,11.00
2023-01-10T02:29:22.704Z,5.00
2023-01-10T02:32:07.717Z,9.82
2023-01-10T02:34:49.500Z,10.68
2023-01-10T02:37:45.259Z,7.53
2023-01-10T02:40:30.100Z,10.63
2023-01-10T02:42:56.690Z,10.05
2023-01-10T02:45:39.268Z,8.70
2023-01-10T02:48:05.919Z,6.87
2023-01-10T02:50:41.797Z,12.82
2023-01-10T02:53:13.971Z,9.70
2023-01-10T02:56:11.451Z,5.50
2023-01-10T02:59:15.754Z,13.00
2023-01-10T03:02:08.778Z,6.68
2023-01-10T03:04:52.078Z,8.57
2023-01-10T03:10:10.659Z,8.13
2023-01-10T03:13:02.241Z,7.47
2023-01-10T03:15:35.302Z,8.50
2023-01-10T03:18:04.489Z,9.70
2023-01-10T03:20:35.585Z,5.55
2023-01-10T03:23:05.329Z,9.48
2023-01-10T03:25:35.914Z,11.73
2023-01-10T03:28:10.548Z,7.28
2023-01-10T03:30:58.687Z,9.65
2023-01-10T03:33:29.831Z,12.32
2023-01-10T03:36:05.486Z,6.55
2023-01-10T03:38:46.459Z,6.10
2023-01-10T03:41:42.149Z,5.93
2023-01-10T03:44:36.698Z,5.60
2023-01-10T03:47:24.523Z,8.43
2023-01-10T03:49:57.099Z,7.25
2023-01-10T03:52:25.133Z,11.98
2023-01-10T03:54:52.150Z,5.38
2023-01-10T03:57:21.436Z,12.77
2023-01-10T03:59:54.183Z,4.90
2023-01-10T04:02:21.268Z,7.03
2023-01-10T04:04:47.969Z,7.30
2023-01-10T04:07:14.709Z,7.60
2023-01-10T04:09:41.341Z,4.68
2023-01-10T04:12:08.092Z,9.48
2023-01-10T04:14:34.837Z,5.63
2023-01-10T04:17:01.595Z,7.60
2023-01-10T04:19:28.376Z,3.13
2023-01-10T04:21:55.117Z,5.47
2023-01-10T04:24:22.019Z,8.10
2023-01-10T04:26:48.734Z,6.85
2023-01-10T04:29:15.407Z,4.97
2023-01-10T04:31:42.281Z,9.57
2023-01-10T04:34:09.629Z,10.65
2023-01-10T04:36:36.961Z,3.83
2023-01-10T04:39:04.745Z,10.90
2023-01-10T04:41:31.434Z,4.65
2023-01-10T04:43:58.220Z,11.05
2023-01-10T04:46:24.870Z,7.97
2023-01-10T04:48:52.232Z,8.32
2023-01-10T04:51:18.935Z,8.05
2023-01-10T04:53:45.548Z,7.95
2023-01-10T04:56:19.769Z,8.98
2023-01-10T04:58:47.375Z,6.53
2023-01-10T05:01:21.099Z,9.00
2023-01-10T05:03:52.361Z,5.70
2023-01-10T05:06:19.824Z,7.13
2023-01-10T05:08:46.717Z,4.28
2023-01-10T05:11:13.800Z,4.57
2023-01-10T05:13:41.018Z,9.25
2023-01-10T05:16:08.386Z,5.72
2023-01-10T05:18:35.296Z,2.33
2023-01-10T05:21:08.484Z,5.53
2023-01-10T05:26:16.803Z,4.53
2023-01-10T05:28:43.663Z,7.18
2023-01-10T05:31:13.355Z,3.80
2023-01-10T05:33:40.307Z,4.65
2023-01-10T05:36:07.700Z,7.35
2023-01-10T05:38:34.379Z,13.02
2023-01-10T05:41:01.431Z,6.22
2023-01-10T05:43:28.726Z,6.57
2023-01-10T05:45:55.632Z,7.30
2023-01-10T05:48:22.519Z,8.40
2023-01-10T05:50:52.766Z,5.43
2023-01-10T05:53:20.051Z,5.38
2023-01-10T05:55:57.755Z,6.43
2023-01-10T05:58:24.996Z,6.15
2023-01-10T06:00:52.123Z,4.88
2023-01-10T06:03:19.706Z,6.07
2023-01-10T06:05:48.675Z,6.50
2023-01-10T06:08:15.684Z,5.15
2023-01-10T06:10:43.107Z,8.07
2023-01-10T06:13:09.942Z,6.38
2023-01-10T06:15:37.121Z,9.45
2023-01-10T06:18:04.480Z,6.57
2023-01-10T06:20:31.657Z,6.70
2023-01-10T06:23:01.068Z,6.85
2023-01-10T06:25:29.609Z,5.45
2023-01-10T06:27:56.441Z,5.85
2023-01-10T06:30:23.485Z,6.70
2023-01-10T06:32:50.236Z,6.63
2023-01-10T06:35:18.180Z,11.13
2023-01-10T06:37:45.079Z,10.43
2023-01-10T06:40:12.360Z,8.48
2023-01-10T06:42:41.387Z,11.27
2023-01-10T06:45:08.580Z,8.80
2023-01-10T06:47:35.564Z,9.30
2023-01-10T06:50:02.364Z,7.78
2023-01-10T06:52:29.260Z,9.18
2023-01-10T06:54:55.995Z,13.68
2023-01-10T06:57:22.903Z,17.00
2023-01-10T06:59:49.561Z,7.72
2023-01-10T07:02:16.442Z,10.90
2023-01-10T07:04:45.039Z,7.47
2023-01-10T07:07:11.814Z,10.63
2023-01-10T07:09:38.566Z,10.52
2023-01-10T07:12:05.504Z,17.80
2023-01-10T07:14:32.410Z,13.07
2023-01-10T07:16:59.115Z,13.48
2023-01-10T07:19:25.907Z,15.43
2023-01-10T07:21:52.616Z,10.85
2023-01-10T07:24:19.435Z,12.82
2023-01-10T07:26:46.175Z,13.50
2023-01-10T07:29:12.906Z,17.80
2023-01-10T07:31:39.660Z,19.05
2023-01-10T07:34:06.418Z,11.20
2023-01-10T07:36:37.896Z,12.77
2023-01-10T07:39:06.008Z,7.00
2023-01-10T07:41:32.814Z,16.52
2023-01-10T07:43:59.615Z,17.67
2023-01-10T07:46:26.706Z,16.73
2023-01-10T07:48:53.465Z,21.80
2023-01-10T07:51:20.236Z,16.02
2023-01-10T07:53:47.414Z,16.50
2023-01-10T07:56:14.200Z,19.00
2023-01-10T07:58:40.915Z,19.10
2023-01-10T08:01:08.133Z,12.10
2023-01-10T08:03:35.609Z,25.00
2023-01-10T08:06:05.939Z,20.02
2023-01-10T08:08:33.715Z,17.48
2023-01-10T08:11:02.665Z,15.13
2023-01-10T08:13:30.406Z,14.20
2023-01-10T08:15:57.221Z,18.83
2023-01-10T08:18:25.243Z,15.60
2023-01-10T08:20:53.819Z,14.68
2023-01-10T08:23:21.107Z,14.65
2023-01-10T08:25:48.397Z,20.27
2023-01-10T08:28:15.530Z,19.80
2023-01-10T08:30:42.595Z,13.70
2023-01-10T08:33:10.909Z,21.42
2023-01-10T08:35:43.115Z,20.23
2023-01-10T08:38:11.010Z,15.23
2023-01-10T08:40:37.855Z,17.02
2023-01-10T08:43:07.622Z,14.88
2023-01-10T08:45:35.014Z,16.75
2023-01-10T08:48:02.369Z,20.15
2023-01-10T08:50:29.259Z,14.95
2023-01-10T08:52:59.230Z,14.82
2023-01-10T08:55:26.703Z,20.52
2023-01-10T08:57:53.668Z,11.95
2023-01-10T09:00:20.868Z,16.08
2023-01-10T09:02:47.603Z,11.77
2023-01-10T09:05:26.368Z,17.17
2023-01-10T09:07:59.101Z,14.90
2023-01-10T09:10:26.830Z,11.23
2023-01-10T09:12:56.342Z,11.73
2023-01-10T09:15:25.415Z,15.38
2023-01-10T09:18:00.803Z,15.68
2023-01-10T09:20:29.231Z,21.33
2023-01-10T09:22:57.149Z,13.38
2023-01-10T09:25:25.037Z,14.70
2023-01-10T09:27:59.802Z,9.38
2023-01-10T09:30:28.389Z,13.98
2023-01-10T09:32:56.240Z,15.05
2023-01-10T09:35:24.665Z,16.98
2023-01-10T09:37:55.314Z,17.83
2023-01-10T09:40:50.691Z,10.10
2023-01-10T09:43:36.063Z,8.70
2023-01-10T09:46:15.869Z,15.85
2023-01-10T09:48:52.055Z,13.15
2023-01-10T09:51:40.801Z,12.25
2023-01-10T09:54:14.312Z,16.88
2023-01-10T09:56:41.536Z,14.53
2023-01-10T09:59:25.418Z,16.85
2023-01-10T10:02:00.002Z,17.70
2023-01-10T10:04:36.815Z,16.15
2023-01-10T10:07:07.405Z,15.20
2023-01-10T10:09:35.483Z,15.73
2023-01-10T10:12:29.410Z,12.30
2023-01-10T10:15:16.106Z,15.85
2023-01-10T10:17:48.871Z,17.13
2023-01-10T10:20:23.531Z,11.38
2023-01-10T10:23:18.016Z,13.40
2023-01-10T10:26:02.688Z,10.18
2023-01-10T10:28:58.797Z,10.20
2023-01-10T10:31:38.558Z,7.35
2023-01-10T10:34:23.608Z,5.47
2023-01-10T10:37:18.117Z,13.45
2023-01-10T10:39:54.274Z,12.90
2023-01-10T10:42:21.943Z,10.68
2023-01-10T10:45:06.307Z,13.05
2023-01-10T10:47:35.992Z,11.38
2023-01-10T10:50:14.644Z,15.27
2023-01-10T10:52:42.473Z,13.00
2023-01-10T10:55:18.779Z,9.65
2023-01-10T10:57:59.561Z,14.57
2023-01-10T11:00:28.244Z,13.93
2023-01-10T11:03:03.677Z,13.85
2023-01-10T11:05:39.832Z,12.10
2023-01-10T11:08:12.916Z,14.48
2023-01-10T11:10:41.962Z,12.95
2023-01-10T11:13:29.867Z,9.88
2023-01-10T11:15:56.808Z,9.05
2023-01-10T11:18:25.750Z,10.13
2023-01-10T11:21:00.363Z,10.68
2023-01-10T11:23:36.193Z,12.93
2023-01-10T11:26:03.749Z,11.10
2023-01-10T11:28:32.571Z,15.70
2023-01-10T11:31:01.191Z,14.63
2023-01-10T11:33:40.071Z,8.43
2023-01-10T11:36:13.160Z,15.48
2023-01-10T11:38:40.341Z,15.10
2023-01-10T11:41:25.164Z,14.98
2023-01-10T11:43:51.867Z,15.18
2023-01-10T11:46:21.910Z,11.23
2023-01-10T11:49:07.838Z,12.38
2023-01-10T11:51:38.227Z,17.63
2023-01-10T11:54:13.117Z,14.13
2023-01-10T11:56:41.724Z,18.83
2023-01-10T11:59:16.209Z,14.82
2023-01-10T12:01:48.634Z,14.52
2023-01-10T12:04:17.329Z,31.85
2023-01-10T12:06:47.576Z,23.55
2023-01-10T12:09:34.164Z,23.33
2023-01-10T12:12:06.715Z,19.83
2023-01-10T12:14:33.511Z,15.10
2023-01-10T12:17:04.723Z,19.20
2023-01-10T12:19:31.496Z,19.25
2023-01-10T12:22:02.929Z,25.05
2023-01-10T12:24:35.997Z,20.45
2023-01-10T12:27:05.019Z,17.92
2023-01-10T12:29:39.373Z,22.98
2023-01-10T12:32:11.287Z,28.17
2023-01-10T12:34:46.749Z,17.25
2023-01-10T12:37:26.428Z,25.08
2023-01-10T12:39:58.962Z,19.13
2023-01-10T12:43:10.956Z,22.92
2023-01-10T12:45:47.761Z,16.45
2023-01-10T12:48:33.142Z,22.15
2023-01-10T12:51:05.454Z,22.30
2023-01-10T12:53:36.259Z,26.97
2023-01-10T12:56:08.087Z,15.13
2023-01-10T12:58:38.149Z,19.08
2023-01-10T13:01:07.104Z,19.65
2023-01-10T13:03:35.830Z,21.63
2023-01-10T13:06:03.689Z,20.40
2023-01-10T13:08:35.311Z,14.32
2023-01-10T13:11:03.975Z,32.45
2023-01-10T13:13:40.163Z,17.30
2023-01-10T13:16:28.446Z,17.88
2023-01-10T13:19:06.617Z,10.55
2023-01-10T13:21:35.062Z,17.65
2023-01-10T13:24:06.600Z,15.23
2023-01-10T13:26:46.457Z,15.27
2023-01-10T13:29:18.954Z,23.35
2023-01-10T13:31:47.542Z,15.68
2023-01-10T13:34:16.860Z,19.40
2023-01-10T13:36:56.573Z,21.42
2023-01-10T13:39:38.144Z,13.57
2023-01-10T13:42:23.248Z,17.42
2023-01-10T13:45:05.011Z,17.50
2023-01-10T13:47:40.674Z,19.27
2023-01-10T13:50:22.782Z,17.75
2023-01-10T13:53:18.237Z,12.45
2023-01-10T13:55:53.701Z,13.82
2023-01-10T13:58:42.153Z,15.68
2023-01-10T14:01:44.896Z,14.70
2023-01-10T14:04:31.674Z,19.58
2023-01-10T14:07:04.800Z,22.55
2023-01-10T14:09:44.832Z,24.77
2023-01-10T14:12:29.956Z,24.27
2023-01-10T14:15:18.284Z,26.70
2023-01-10T14:17:45.149Z,17.52
2023-01-10T14:20:20.418Z,26.17
2023-01-10T14:23:16.191Z,26.35
2023-01-10T14:25:44.953Z,15.60
2023-01-10T14:28:40.860Z,19.60
2023-01-10T14:31:13.725Z,25.65
2023-01-10T14:33:43.458Z,15.55
2023-01-10T14:36:20.815Z,18.73
2023-01-10T14:38:49.936Z,24.15
2023-01-10T14:41:25.070Z,19.17
2023-01-10T14:44:00.876Z,20.85
2023-01-10T14:46:51.949Z,20.95
2023-01-10T14:49:30.817Z,19.80
2023-01-10T14:52:33.409Z,20.83
2023-01-10T14:55:16.928Z,32.30
2023-01-10T14:57:55.262Z,24.83
2023-01-10T15:00:28.259Z,19.23
2023-01-10T15:02:55.274Z,15.90
2023-01-10T15:05:27.443Z,19.80
2023-01-10T15:07:55.633Z,19.17
2023-01-10T15:10:30.968Z,18.73
2023-01-10T15:13:03.185Z,15.55
2023-01-10T15:15:33.842Z,17.42
2023-01-10T15:18:02.638Z,22.02
2023-01-10T15:20:30.113Z,18.85
2023-01-10T15:23:01.413Z,26.92
2023-01-10T15:25:38.494Z,27.92
2023-01-10T15:28:16.335Z,17.13
2023-01-10T15:30:43.904Z,17.85
2023-01-10T15:33:17.280Z,20.02
2023-01-10T15:35:44.483Z,21.80
2023-01-10T15:38:24.125Z,20.27
2023-01-10T15:41:02.639Z,22.70
2023-01-10T15:43:31.556Z,16.05
2023-01-10T15:46:00.258Z,25.02
2023-01-10T15:48:54.736Z,15.00
2023-01-10T15:51:37.931Z,14.93
2023-01-10T15:54:06.308Z,16.13
2023-01-10T15:56:33.055Z,22.33
2023-01-10T15:59:01.280Z,17.90
2023-01-10T16:01:29.139Z,14.23
2023-01-10T16:04:03.219Z,11.50
2023-01-10T16:06:35.909Z,11.75
2023-01-10T16:09:07.206Z,17.25
2023-01-10T16:12:08.859Z,14.13
2023-01-10T16:14:36.130Z,12.75
2023-01-10T16:17:03.585Z,13.95
2023-01-10T16:19:30.888Z,18.95
2023-01-10T16:21:59.390Z,22.88
2023-01-10T16:24:29.482Z,14.77
2023-01-10T16:26:58.544Z,20.08
2023-01-10T16:29:25.293Z,12.68
2023-01-10T16:31:53.426Z,14.27
2023-01-10T16:34:20.895Z,14.20
2023-01-10T16:36:47.862Z,15.68
2023-01-10T16:39:18.175Z,15.45
2023-01-10T16:42:04.537Z,14.20
2023-01-10T16:44:32.231Z,13.68
2023-01-10T16:46:59.279Z,16.77
2023-01-10T16:49:26.550Z,17.67
2023-01-10T16:51:54.038Z,17.42
2023-01-10T16:54:25.336Z,18.23
2023-01-10T16:56:52.181Z,11.50
2023-01-10T16:59:20.409Z,19.80
2023-01-10T17:01:52.108Z,14.63
2023-01-10T17:04:36.039Z,10.70
2023-01-10T17:07:02.771Z,9.10
2023-01-10T17:09:31.033Z,18.75
2023-01-10T17:12:07.540Z,11.95
2023-01-10T17:14:36.154Z,13.15
2023-01-10T17:17:04.199Z,10.52
2023-01-10T17:19:31.264Z,20.67
2023-01-10T17:21:58.032Z,11.45
2023-01-10T17:24:24.709Z,10.80
2023-01-10T17:26:51.530Z,17.55
2023-01-10T17:29:18.209Z,17.98
2023-01-10T17:31:45.010Z,13.35
2023-01-10T17:34:11.752Z,12.63
2023-01-10T17:36:39.892Z,9.05
2023-01-10T17:39:06.821Z,15.73
2023-01-10T17:41:33.988Z,11.65
2023-01-10T17:44:00.660Z,10.93
2023-01-10T17:46:27.340Z,11.63
2023-01-10T17:48:54.122Z,10.90
2023-01-10T17:51:22.985Z,10.48
2023-01-10T17:53:49.641Z,12.38
2023-01-10T17:56:16.988Z,10.73
2023-01-10T17:58:44.813Z,9.50
2023-01-10T18:01:24.639Z,11.50
2023-01-10T18:03:52.113Z,8.40
2023-01-10T18:06:24.507Z,7.60
2023-01-10T18:08:52.289Z,8.68
2023-01-10T18:11:19.010Z,9.50
2023-01-10T18:13:45.742Z,10.30
2023-01-10T18:16:12.421Z,10.85
2023-01-10T18:18:39.195Z,14.63
2023-01-10T18:21:13.460Z,12.50
2023-01-10T18:23:40.385Z,10.05
2023-01-10T18:26:09.552Z,9.40
2023-01-10T18:28:43.116Z,8.95
2023-01-10T18:31:17.692Z,8.63
2023-01-10T18:33:46.024Z,12.73
2023-01-10T18:36:15.569Z,7.35
2023-01-10T18:38:43.003Z,9.65
2023-01-10T18:41:09.717Z,8.68
2023-01-10T18:43:36.431Z,12.65
2023-01-10T18:46:10.402Z,11.07
2023-01-10T18:48:37.455Z,8.93
2023-01-10T18:51:05.128Z,10.13
2023-01-10T18:53:32.882Z,10.57
2023-01-10T18:56:02.013Z,5.75
2023-01-10T18:58:33.527Z,8.30
2023-01-10T19:01:06.850Z,7.25
2023-01-10T19:03:34.053Z,8.90
2023-01-10T19:06:02.148Z,9.27
2023-01-10T19:08:28.994Z,8.60
2023-01-10T19:13:43.679Z,8.45
2023-01-10T19:16:13.509Z,10.75
2023-01-10T19:18:40.864Z,8.73
2023-01-10T19:21:15.278Z,9.50
2023-01-10T19:23:46.765Z,11.48
2023-01-10T19:26:14.199Z,8.57
2023-01-10T19:28:42.012Z,8.75
2023-01-10T19:31:09.179Z,12.63
2023-01-10T19:33:37.686Z,11.02
2023-01-10T19:36:06.729Z,11.07
2023-01-10T19:38:34.229Z,10.60
2023-01-10T19:41:01.035Z,10.63
2023-01-10T19:43:27.958Z,7.68
2023-01-10T19:45:55.375Z,7.55
2023-01-10T19:48:23.243Z,8.23
2023-01-10T19:50:49.988Z,7.18
2023-01-10T19:53:16.759Z,5.50
2023-01-10T19:55:43.409Z,5.70
2023-01-10T19:58:10.186Z,7.30
2023-01-10T20:00:36.843Z,6.13
2023-01-10T20:03:05.250Z,4.47
2023-01-10T20:05:36.372Z,10.07
2023-01-10T20:08:04.971Z,6.38
2023-01-10T20:10:31.773Z,9.15
2023-01-10T20:12:58.551Z,11.15
2023-01-10T20:15:25.259Z,10.35
2023-01-10T20:17:52.008Z,8.10
2023-01-10T20:20:20.872Z,9.68
2023-01-10T20:22:48.366Z,8.63
2023-01-10T20:25:15.075Z,6.60
2023-01-10T20:27:41.968Z,7.43
2023-01-10T20:30:09.414Z,5.32
2023-01-10T20:32:36.270Z,7.22
2023-01-10T20:35:02.943Z,5.32
2023-01-10T20:37:29.818Z,5.78
2023-01-10T20:39:57.274Z,7.38
2023-01-10T20:42:24.016Z,6.68
2023-01-10T20:44:50.723Z,6.75
2023-01-10T20:47:17.409Z,7.05
2023-01-10T20:49:44.118Z,7.20
2023-01-10T20:52:10.764Z,6.88
2023-01-10T20:54:38.769Z,5.50
2023-01-10T20:57:05.692Z,5.05
2023-01-10T20:59:33.759Z,5.50
2023-01-10T21:02:01.373Z,4.30
2023-01-10T21:04:28.955Z,3.70
2023-01-10T21:06:55.734Z,3.70
2023-01-10T21:09:22.423Z,1.52
2023-01-10T21:12:02.059Z,1.67
2023-01-10T21:14:36.335Z,1.60
2023-01-10T21:17:03.272Z,2.30
2023-01-10T21:19:30.015Z,2.42
2023-01-10T21:21:56.685Z,3.03
2023-01-10T21:24:25.091Z,1.73
2023-01-10T21:26:52.446Z,3.03
2023-01-10T21:29:19.704Z,2.63
2023-01-10T21:31:46.727Z,2.90
2023-01-10T21:34:13.596Z,3.00
2023-01-10T21:36:40.355Z,3.30
2023-01-10T21:39:07.196Z,1.48
2023-01-10T21:41:52.448Z,3.20
2023-01-10T21:44:20.364Z,2.85
2023-01-10T21:46:49.286Z,2.78
2023-01-10T21:49:16.075Z,2.33
2023-01-10T21:51:43.785Z,2.05
2023-01-10T21:54:10.924Z,2.50
2023-01-10T21:56:40.195Z,3.03
2023-01-10T21:59:07.051Z,3.45
2023-01-10T22:01:33.742Z,3.65
2023-01-10T22:04:00.425Z,2.55
2023-01-10T22:06:27.265Z,3.15
2023-01-10T22:08:54.515Z,1.98
2023-01-10T22:11:21.571Z,1.77
2023-01-10T22:13:48.317Z,2.08
2023-01-10T22:16:15.013Z,5.85
2023-01-10T22:18:45.560Z,2.65
2023-01-10T22:21:12.658Z,5.85
2023-01-10T22:23:43.013Z,3.30
2023-01-10T22:26:11.831Z,8.23
2023-01-10T22:28:38.603Z,7.80
2023-01-10T22:31:05.773Z,6.25
2023-01-10T22:33:35.220Z,7.22
2023-01-10T22:36:05.802Z,10.25
2023-01-10T22:38:32.893Z,4.75
2023-01-10T22:41:09.433Z,6.97
2023-01-10T22:43:36.438Z,4.53
2023-01-10T22:46:06.800Z,6.30
2023-01-10T22:48:35.915Z,6.72
2023-01-10T22:51:04.290Z,6.20
2023-01-10T22:53:31.877Z,6.07
2023-01-10T22:56:05.157Z,4.05
2023-01-10T23:01:04.217Z,7.60
2023-01-10T23:03:34.060Z,17.50
2023-01-10T23:06:01.265Z,6.68
2023-01-10T23:08:28.163Z,9.15
2023-01-10T23:10:55.216Z,5.57
2023-01-10T23:13:23.403Z,10.02
2023-01-10T23:16:02.559Z,17.15
2023-01-10T23:18:29.946Z,9.20
2023-01-10T23:20:57.334Z,10.13
2023-01-10T23:23:25.427Z,9.88
2023-01-10T23:26:01.790Z,8.88
2023-01-10T23:28:49.348Z,4.80
2023-01-10T23:31:19.573Z,7.25
2023-01-10T23:33:47.283Z,4.90
2023-01-10T23:36:14.697Z,6.97
2023-01-10T23:38:41.464Z,6.80
2023-01-10T23:41:08.765Z,7.63
2023-01-10T23:43:35.658Z,6.00
2023-01-10T23:46:02.427Z,8.65
2023-01-10T23:48:29.956Z,7.32
2023-01-10T23:50:57.244Z,8.07
2023-01-10T23:53:24.022Z,5.32
2023-01-10T23:55:50.807Z,9.60
2023-01-10T23:58:17.586Z,8.63
